Time,TemperatureF,DewpointF,PressureIn,WindDirection,WindDirectionDegrees,WindSpeedMPH,WindSpeedGustMPH,Humidity,HourlyPrecipIn,Conditions,Clouds,dailyrainin,SoftwareType,DateUTC
2013-09-05 00:03:00,49.0,39.0,-100.00,SSE,155,4.0,8.0,67,0.00,,,0.06,,2013-09-05 08:03:00,
2013-09-05 00:12:00,49.0,39.0,-100.00,SSE,155,4.0,8.0,67,0.00,,,0.06,,2013-09-05 08:12:00,
2013-09-05 00:21:00,48.0,40.0,-100.00,SSE,155,2.0,7.0,73,0.00,,,0.06,,2013-09-05 08:21:00,
2013-09-05 00:32:00,48.0,40.0,-100.00,SSE,155,2.0,7.0,73,0.00,,,0.06,,2013-09-05 08:32:00,
2013-09-05 00:42:00,48.0,40.0,-100.00,SSE,155,2.0,7.0,73,0.00,,,0.06,,2013-09-05 08:42:00,
2013-09-05 00:52:00,46.0,40.0,-100.00,WNW,285,6.0,14.0,80,0.00,,,0.06,,2013-09-05 08:52:00,
2013-09-05 01:02:00,46.0,40.0,-100.00,WNW,285,6.0,14.0,80,0.00,,,0.06,,2013-09-05 09:02:00,
2013-09-05 01:11:00,46.0,40.0,-100.00,WNW,285,6.0,14.0,80,0.00,,,0.06,,2013-09-05 09:11:00,
2013-09-05 01:22:00,45.0,41.0,-100.00,West,275,9.0,15.0,84,0.00,,,0.06,,2013-09-05 09:22:00,
2013-09-05 01:33:00,45.0,41.0,-100.00,West,275,9.0,15.0,84,0.00,,,0.06,,2013-09-05 09:33:00,
2013-09-05 01:43:00,45.0,41.0,-100.00,West,275,9.0,15.0,84,0.00,,,0.06,,2013-09-05 09:43:00,
2013-09-05 01:53:00,44.0,40.0,-100.00,West,270,9.0,16.0,86,0.00,,,0.06,,2013-09-05 09:53:00,
2013-09-05 02:03:00,44.0,40.0,-100.00,West,270,9.0,16.0,86,0.00,,,0.06,,2013-09-05 10:03:00,
2013-09-05 02:12:00,44.0,40.0,-100.00,West,270,9.0,16.0,86,0.00,,,0.06,,2013-09-05 10:12:00,
2013-09-05 02:23:00,44.0,39.0,-100.00,West,275,9.0,15.0,84,0.00,,,0.06,,2013-09-05 10:23:00,
2013-09-05 02:32:00,44.0,39.0,-100.00,West,275,9.0,15.0,84,0.00,,,0.06,,2013-09-05 10:32:00,
2013-09-05 02:43:00,44.0,39.0,-100.00,West,275,9.0,15.0,84,0.00,,,0.06,,2013-09-05 10:43:00,
2013-09-05 02:53:00,44.0,41.0,-100.00,WSW,240,6.0,12.0,89,0.00,,,0.06,,2013-09-05 10:53:00,
2013-09-05 03:03:00,44.0,41.0,-100.00,WSW,240,6.0,12.0,89,0.00,,,0.06,,2013-09-05 11:03:00,
2013-09-05 03:12:00,44.0,41.0,-100.00,WSW,240,6.0,12.0,89,0.00,,,0.06,,2013-09-05 11:12:00,
2013-09-05 03:21:00,43.0,40.0,-100.00,SW,230,4.0,9.0,90,0.01,,,0.07,,2013-09-05 11:21:00,
2013-09-05 03:33:00,43.0,40.0,-100.00,SW,230,4.0,9.0,90,0.01,,,0.07,,2013-09-05 11:33:00,
2013-09-05 03:42:00,43.0,40.0,-100.00,SW,230,4.0,9.0,90,0.01,,,0.07,,2013-09-05 11:42:00,
2013-09-05 03:52:00,42.0,40.0,-100.00,West,265,3.0,10.0,90,0.01,,,0.07,,2013-09-05 11:52:00,
2013-09-05 04:01:00,42.0,40.0,-100.00,West,265,3.0,10.0,90,0.01,,,0.07,,2013-09-05 12:01:00,
2013-09-05 04:12:00,42.0,40.0,-100.00,West,265,3.0,10.0,90,0.01,,,0.07,,2013-09-05 12:12:00,
2013-09-05 04:21:00,43.0,40.0,-100.00,SE,140,2.0,9.0,90,0.00,,,0.07,,2013-09-05 12:21:00,
2013-09-05 04:32:00,43.0,40.0,-100.00,SE,140,2.0,9.0,90,0.00,,,0.07,,2013-09-05 12:32:00,
2013-09-05 04:42:00,43.0,40.0,-100.00,SE,140,2.0,9.0,90,0.00,,,0.07,,2013-09-05 12:42:00,
2013-09-05 04:52:00,42.0,40.0,-100.00,SSW,210,4.0,9.0,90,0.00,,,0.07,,2013-09-05 12:52:00,
2013-09-05 05:01:00,42.0,40.0,-100.00,SSW,210,4.0,9.0,90,0.00,,,0.07,,2013-09-05 13:01:00,
2013-09-05 05:12:00,42.0,40.0,-100.00,SSW,210,4.0,9.0,90,0.00,,,0.07,,2013-09-05 13:12:00,
2013-09-05 05:21:00,42.0,38.0,-100.00,SW,215,3.0,8.0,87,0.00,,,0.07,,2013-09-05 13:21:00,
2013-09-05 05:32:00,42.0,38.0,-100.00,SW,215,3.0,8.0,87,0.00,,,0.07,,2013-09-05 13:32:00,
2013-09-05 05:42:00,42.0,38.0,-100.00,SW,215,3.0,8.0,87,0.00,,,0.07,,2013-09-05 13:42:00,
2013-09-05 05:52:00,42.0,39.0,-100.00,SW,220,3.0,8.0,89,0.00,,,0.07,,2013-09-05 13:52:00,
2013-09-05 06:01:00,42.0,39.0,-100.00,SW,220,3.0,8.0,89,0.00,,,0.07,,2013-09-05 14:01:00,
2013-09-05 06:12:00,42.0,39.0,-100.00,SW,220,3.0,8.0,89,0.00,,,0.07,,2013-09-05 14:12:00,
2013-09-05 06:22:00,42.0,35.0,-100.00,WSW,240,6.0,11.0,78,0.00,,,0.07,,2013-09-05 14:22:00,
2013-09-05 06:32:00,42.0,35.0,-100.00,WSW,240,6.0,11.0,78,0.00,,,0.07,,2013-09-05 14:32:00,
2013-09-05 06:42:00,42.0,35.0,-100.00,WSW,240,6.0,11.0,78,0.00,,,0.07,,2013-09-05 14:42:00,
2013-09-05 06:52:00,41.0,35.0,-100.00,SSW,195,3.0,7.0,78,0.00,,,0.07,,2013-09-05 14:52:00,
2013-09-05 07:02:00,41.0,35.0,-100.00,SSW,195,3.0,7.0,78,0.00,,,0.07,,2013-09-05 15:02:00,
2013-09-05 07:11:00,41.0,35.0,-100.00,SSW,195,3.0,7.0,78,0.00,,,0.07,,2013-09-05 15:11:00,
2013-09-05 07:22:00,42.0,34.0,-100.00,SW,225,2.0,4.0,73,0.00,,,0.07,,2013-09-05 15:22:00,
2013-09-05 07:33:00,42.0,34.0,-100.00,SW,225,2.0,4.0,73,0.00,,,0.07,,2013-09-05 15:33:00,
2013-09-05 07:44:00,42.0,34.0,-100.00,SW,225,2.0,4.0,73,0.00,,,0.07,,2013-09-05 15:44:00,
2013-09-05 07:54:00,42.0,34.0,-100.00,SSW,200,2.0,4.0,71,0.00,,,0.07,,2013-09-05 15:54:00,
2013-09-05 08:03:00,42.0,34.0,-100.00,SSW,200,2.0,4.0,71,0.00,,,0.07,,2013-09-05 16:03:00,
2013-09-05 08:13:00,42.0,34.0,-100.00,SSW,200,2.0,4.0,71,0.00,,,0.07,,2013-09-05 16:13:00,
2013-09-05 08:24:00,42.0,33.0,-100.00,South,170,1.0,3.0,71,0.00,,,0.07,,2013-09-05 16:24:00,
2013-09-05 08:32:00,42.0,33.0,-100.00,South,170,1.0,3.0,71,0.00,,,0.07,,2013-09-05 16:32:00,
2013-09-05 08:43:00,42.0,33.0,-100.00,South,170,1.0,3.0,71,0.00,,,0.07,,2013-09-05 16:43:00,
2013-09-05 08:54:00,41.0,36.0,-100.00,ESE,110,3.0,7.0,82,0.00,,,0.07,,2013-09-05 16:54:00,
2013-09-05 09:03:00,41.0,36.0,-100.00,ESE,110,3.0,7.0,82,0.00,,,0.07,,2013-09-05 17:03:00,
2013-09-05 09:12:00,41.0,36.0,-100.00,ESE,110,3.0,7.0,82,0.00,,,0.07,,2013-09-05 17:12:00,
2013-09-05 09:23:00,40.0,37.0,-100.00,ESE,110,3.0,8.0,88,0.00,,,0.07,,2013-09-05 17:23:00,
2013-09-05 09:34:00,40.0,37.0,-100.00,ESE,110,3.0,8.0,88,0.00,,,0.07,,2013-09-05 17:34:00,
2013-09-05 09:43:00,40.0,37.0,-100.00,ESE,110,3.0,8.0,88,0.00,,,0.07,,2013-09-05 17:43:00,
2013-09-05 09:52:00,40.0,38.0,-100.00,SE,130,4.0,10.0,90,0.00,,,0.07,,2013-09-05 17:52:00,
2013-09-05 10:02:00,40.0,38.0,-100.00,SE,130,4.0,10.0,90,0.00,,,0.07,,2013-09-05 18:02:00,
2013-09-05 10:12:00,40.0,38.0,-100.00,SE,130,4.0,10.0,90,0.00,,,0.07,,2013-09-05 18:12:00,
2013-09-05 10:21:00,41.0,38.0,-100.00,SE,145,4.0,11.0,88,0.00,,,0.07,,2013-09-05 18:21:00,
2013-09-05 10:32:00,41.0,38.0,-100.00,SE,145,4.0,11.0,88,0.00,,,0.07,,2013-09-05 18:32:00,
2013-09-05 10:42:00,41.0,38.0,-100.00,SE,145,4.0,11.0,88,0.00,,,0.07,,2013-09-05 18:42:00,
2013-09-05 10:52:00,42.0,38.0,-100.00,ESE,115,4.0,9.0,83,0.00,,,0.06,,2013-09-05 18:52:00,
2013-09-05 11:01:00,42.0,38.0,-100.00,ESE,115,4.0,9.0,83,0.00,,,0.06,,2013-09-05 19:01:00,
2013-09-05 11:11:00,42.0,38.0,-100.00,ESE,115,4.0,9.0,83,0.00,,,0.06,,2013-09-05 19:11:00,
2013-09-05 11:21:00,43.0,37.0,-100.00,East,85,2.0,10.0,77,0.00,,,0.06,,2013-09-05 19:21:00,
2013-09-05 11:32:00,43.0,37.0,-100.00,East,85,2.0,10.0,77,0.00,,,0.06,,2013-09-05 19:32:00,
2013-09-05 11:42:00,43.0,37.0,-100.00,East,85,2.0,10.0,77,0.00,,,0.06,,2013-09-05 19:42:00,
2013-09-05 11:52:00,44.0,38.0,-100.00,SE,145,2.0,11.0,78,0.00,,,0.05,,2013-09-05 19:52:00,
2013-09-05 12:03:00,44.0,38.0,-100.00,SE,145,2.0,11.0,78,0.00,,,0.05,,2013-09-05 20:03:00,
2013-09-05 12:11:00,44.0,38.0,-100.00,SE,145,2.0,11.0,78,0.00,,,0.05,,2013-09-05 20:11:00,
2013-09-05 12:22:00,48.0,39.0,-100.00,SE,140,2.0,9.0,70,0.00,,,0.05,,2013-09-05 20:22:00,
2013-09-05 12:32:00,48.0,39.0,-100.00,SE,140,2.0,9.0,70,0.00,,,0.05,,2013-09-05 20:32:00,
2013-09-05 12:42:00,48.0,39.0,-100.00,SE,140,2.0,9.0,70,0.00,,,0.05,,2013-09-05 20:42:00,
2013-09-05 12:52:00,48.0,37.0,-100.00,ESE,120,3.0,12.0,65,0.00,,,0.01,,2013-09-05 20:52:00,
2013-09-05 13:02:00,48.0,37.0,-100.00,ESE,120,3.0,12.0,65,0.00,,,0.01,,2013-09-05 21:02:00,
2013-09-05 13:12:00,48.0,37.0,-100.00,ESE,120,3.0,12.0,65,0.00,,,0.01,,2013-09-05 21:12:00,
2013-09-05 13:21:00,49.0,38.0,-100.00,SE,130,3.0,14.0,67,0.00,,,0.01,,2013-09-05 21:21:00,
2013-09-05 13:34:00,49.0,38.0,-100.00,SE,130,3.0,14.0,67,0.00,,,0.01,,2013-09-05 21:34:00,
2013-09-05 13:44:00,49.0,38.0,-100.00,SE,130,3.0,14.0,67,0.00,,,0.01,,2013-09-05 21:44:00,
2013-09-05 13:53:00,50.0,39.0,-100.00,SE,145,3.0,12.0,67,0.00,,,0.01,,2013-09-05 21:53:00,
2013-09-05 14:04:00,50.0,39.0,-100.00,SE,145,3.0,12.0,67,0.00,,,0.01,,2013-09-05 22:04:00,
2013-09-05 14:13:00,50.0,39.0,-100.00,SE,145,3.0,12.0,67,0.00,,,0.01,,2013-09-05 22:13:00,
2013-09-05 14:24:00,53.0,40.0,-100.00,SE,135,4.0,9.0,61,0.00,,,0.01,,2013-09-05 22:24:00,
2013-09-05 14:33:00,53.0,40.0,-100.00,SE,135,4.0,9.0,61,0.00,,,0.01,,2013-09-05 22:33:00,
2013-09-05 14:43:00,53.0,40.0,-100.00,SE,135,4.0,9.0,61,0.00,,,0.01,,2013-09-05 22:43:00,
2013-09-05 14:53:00,54.0,38.0,-100.00,ESE,120,2.0,9.0,53,0.00,,,0.01,,2013-09-05 22:53:00,
2013-09-05 15:02:00,54.0,38.0,-100.00,ESE,120,2.0,9.0,53,0.00,,,0.01,,2013-09-05 23:02:00,
2013-09-05 15:12:00,54.0,38.0,-100.00,ESE,120,2.0,9.0,53,0.00,,,0.01,,2013-09-05 23:12:00,
2013-09-05 15:22:00,54.0,37.0,-100.00,SSE,165,4.0,9.0,51,0.00,,,0.01,,2013-09-05 23:22:00,
2013-09-05 15:34:00,54.0,37.0,-100.00,SSE,165,4.0,9.0,51,0.00,,,0.01,,2013-09-05 23:34:00,
2013-09-05 15:42:00,54.0,37.0,-100.00,SSE,165,4.0,9.0,51,0.00,,,0.01,,2013-09-05 23:42:00,
2013-09-05 15:53:00,54.0,37.0,-100.00,SSE,155,2.0,9.0,52,0.00,,,0.01,,2013-09-05 23:53:00,
2013-09-05 16:02:00,54.0,37.0,-100.00,SSE,155,2.0,9.0,52,0.00,,,0.01,,2013-09-06 00:02:00,
2013-09-05 16:12:00,54.0,37.0,-100.00,SSE,155,2.0,9.0,52,0.00,,,0.01,,2013-09-06 00:12:00,
2013-09-05 16:22:00,54.0,37.0,-100.00,SE,145,4.0,9.0,52,0.00,,,0.01,,2013-09-06 00:22:00,
2013-09-05 16:33:00,54.0,37.0,-100.00,SE,145,4.0,9.0,52,0.00,,,0.01,,2013-09-06 00:33:00,
2013-09-05 16:42:00,54.0,37.0,-100.00,SE,145,4.0,9.0,52,0.00,,,0.01,,2013-09-06 00:42:00,
2013-09-05 16:52:00,53.0,37.0,-100.00,SSE,160,3.0,11.0,54,0.00,,,0.01,,2013-09-06 00:52:00,
2013-09-05 17:01:00,53.0,37.0,-100.00,SSE,160,3.0,11.0,54,0.00,,,0.01,,2013-09-06 01:01:00,
2013-09-05 17:11:00,53.0,37.0,-100.00,SSE,160,3.0,11.0,54,0.00,,,0.01,,2013-09-06 01:11:00,
2013-09-05 17:21:00,53.0,38.0,-100.00,SE,135,3.0,8.0,56,0.00,,,0.01,,2013-09-06 01:21:00,
2013-09-05 17:32:00,53.0,38.0,-100.00,SE,135,3.0,8.0,56,0.00,,,0.01,,2013-09-06 01:32:00,
2013-09-05 17:42:00,53.0,38.0,-100.00,SE,135,3.0,8.0,56,0.00,,,0.01,,2013-09-06 01:42:00,
2013-09-05 17:52:00,53.0,39.0,-100.00,SE,135,2.0,5.0,58,0.00,,,0.01,,2013-09-06 01:52:00,
2013-09-05 18:02:00,53.0,39.0,-100.00,SE,135,2.0,5.0,58,0.00,,,0.01,,2013-09-06 02:02:00,
2013-09-05 18:11:00,53.0,39.0,-100.00,SE,135,2.0,5.0,58,0.00,,,0.01,,2013-09-06 02:11:00,
2013-09-05 18:22:00,53.0,39.0,-100.00,SSE,160,4.0,7.0,60,0.00,,,0.01,,2013-09-06 02:22:00,
2013-09-05 18:32:00,53.0,39.0,-100.00,SSE,160,4.0,7.0,60,0.00,,,0.01,,2013-09-06 02:32:00,
2013-09-05 18:42:00,53.0,39.0,-100.00,SSE,160,4.0,7.0,60,0.00,,,0.01,,2013-09-06 02:42:00,
2013-09-05 18:52:00,52.0,38.0,-100.00,SSW,200,1.0,6.0,57,0.00,,,0.01,,2013-09-06 02:52:00,
2013-09-05 19:02:00,52.0,38.0,-100.00,SSW,200,1.0,6.0,57,0.00,,,0.01,,2013-09-06 03:02:00,
2013-09-05 19:11:00,52.0,38.0,-100.00,SSW,200,1.0,6.0,57,0.00,,,0.01,,2013-09-06 03:11:00,
2013-09-05 19:22:00,51.0,37.0,-100.00,SE,145,1.0,5.0,57,0.00,,,0.01,,2013-09-06 03:22:00,
2013-09-05 19:34:00,51.0,37.0,-100.00,SE,145,1.0,5.0,57,0.00,,,0.01,,2013-09-06 03:34:00,
2013-09-05 19:44:00,51.0,37.0,-100.00,SE,145,1.0,5.0,57,0.00,,,0.01,,2013-09-06 03:44:00,
2013-09-05 19:55:00,51.0,37.0,-100.00,SE,130,1.0,4.0,59,0.00,,,0.01,,2013-09-06 03:55:00,
2013-09-05 20:04:00,51.0,37.0,-100.00,SE,130,1.0,4.0,59,0.00,,,0.01,,2013-09-06 04:04:00,
2013-09-05 20:13:00,51.0,37.0,-100.00,SE,130,1.0,4.0,59,0.00,,,0.01,,2013-09-06 04:13:00,
2013-09-05 20:23:00,50.0,36.0,-100.00,SE,145,2.0,9.0,58,0.00,,,0.01,,2013-09-06 04:23:00,
2013-09-05 20:34:00,50.0,36.0,-100.00,SE,145,2.0,9.0,58,0.00,,,0.01,,2013-09-06 04:34:00,
2013-09-05 20:44:00,50.0,36.0,-100.00,SE,145,2.0,9.0,58,0.00,,,0.01,,2013-09-06 04:44:00,
2013-09-05 20:54:00,50.0,36.0,-100.00,SSW,195,2.0,9.0,58,0.00,,,0.01,,2013-09-06 04:54:00,
2013-09-05 21:03:00,50.0,36.0,-100.00,SSW,195,2.0,9.0,58,0.00,,,0.01,,2013-09-06 05:03:00,
2013-09-05 21:12:00,50.0,36.0,-100.00,SSW,195,2.0,9.0,58,0.00,,,0.01,,2013-09-06 05:12:00,
2013-09-05 21:23:00,49.0,34.0,-100.00,WSW,255,2.0,6.0,55,0.00,,,0.01,,2013-09-06 05:23:00,
2013-09-05 21:34:00,49.0,34.0,-100.00,WSW,255,2.0,6.0,55,0.00,,,0.01,,2013-09-06 05:34:00,
2013-09-05 21:42:00,49.0,34.0,-100.00,WSW,255,2.0,6.0,55,0.00,,,0.01,,2013-09-06 05:42:00,
2013-09-05 21:52:00,48.0,39.0,-100.00,NW,305,6.0,11.0,71,0.00,,,0.01,,2013-09-06 05:52:00,
2013-09-05 22:02:00,48.0,39.0,-100.00,NW,305,6.0,11.0,71,0.00,,,0.01,,2013-09-06 06:02:00,
2013-09-05 22:11:00,48.0,39.0,-100.00,NW,305,6.0,11.0,71,0.00,,,0.01,,2013-09-06 06:11:00,
2013-09-05 22:21:00,47.0,39.0,-100.00,NNW,330,4.0,9.0,72,0.00,,,0.01,,2013-09-06 06:21:00,
2013-09-05 22:32:00,47.0,39.0,-100.00,NNW,330,4.0,9.0,72,0.00,,,0.01,,2013-09-06 06:32:00,
2013-09-05 22:42:00,47.0,39.0,-100.00,NNW,330,4.0,9.0,72,0.00,,,0.01,,2013-09-06 06:42:00,
2013-09-05 22:52:00,45.0,39.0,-100.00,North,355,4.0,7.0,77,0.00,,,0.01,,2013-09-06 06:52:00,
2013-09-05 23:01:00,45.0,39.0,-100.00,North,355,4.0,7.0,77,0.00,,,0.01,,2013-09-06 07:01:00,
2013-09-05 23:11:00,45.0,39.0,-100.00,North,355,4.0,7.0,77,0.00,,,0.01,,2013-09-06 07:11:00,
2013-09-05 23:23:00,45.0,40.0,-100.00,North,355,6.0,9.0,80,0.00,,,0.01,,2013-09-06 07:23:00,
2013-09-05 23:32:00,45.0,40.0,-100.00,North,355,6.0,9.0,80,0.00,,,0.01,,2013-09-06 07:32:00,
2013-09-05 23:42:00,45.0,40.0,-100.00,North,355,6.0,9.0,80,0.00,,,0.01,,2013-09-06 07:42:00,
2013-09-05 23:52:00,45.0,40.0,-100.00,North,0,6.0,8.0,82,0.00,,,0.01,,2013-09-06 07:52:00,